Time;durP1;ratioP1;P1;durP2;ratioP2;P2;SDS_P1;SDS_P2;PMS_P1;PMS_P2;Temp;Humidity;BMP_temperature;BMP_pressure;BME280_temperature;BME280_humidity;BME280_pressure;Samples;Min_cycle;Max_cycle;Signal;HPM_P1;HPM_P2
2022/12/09 00:01:16;;;;;;;22.30;17.13;;;-0.50;95.10;;;-0.78;84.45;97028.09;5073284;28;20495;-69
2022/12/09 00:03:44;;;;;;;25.17;18.20;;;-0.40;95.20;;;-1.46;85.19;96914.31;5078951;28;20461;-69
2022/12/09 00:06:16;;;;;;;24.50;17.20;;;-0.40;95.00;;;-0.80;85.49;97030.09;5070340;28;20453;-69
2022/12/09 00:08:43;;;;;;;24.40;17.50;;;-0.40;94.60;;;-0.92;84.88;97019.81;5081290;28;20465;-70
2022/12/09 00:11:11;;;;;;;25.43;17.07;;;-0.50;94.00;;;-1.15;85.99;97023.13;5079923;28;20520;-69
2022/12/09 00:13:38;;;;;;;26.10;19.67;;;-0.70;94.00;;;-1.39;87.59;97010.69;5081562;28;20560;-68
2022/12/09 00:16:09;;;;;;;31.80;19.13;;;-0.90;94.80;;;-1.43;88.42;97012.88;5076737;28;20521;-68
2022/12/09 00:18:37;;;;;;;26.70;18.97;;;-1.00;96.30;;;-1.47;87.91;97030.06;5072993;28;20954;-69
2022/12/09 00:21:18;;;;;;;31.10;20.13;;;-1.10;97.80;;;-1.39;88.18;97015.19;5109076;27;20440;-70
2022/12/09 00:23:46;;;;;;;28.53;19.97;;;-1.10;99.90;;;-1.11;87.32;97022.81;5073151;28;20444;-68
2022/12/09 00:26:15;;;;;;;26.83;18.27;;;-0.90;99.90;;;-1.02;86.69;97027.97;5072813;28;20929;-68
2022/12/09 00:28:43;;;;;;;27.07;19.93;;;-0.70;99.90;;;-1.04;86.60;97018.50;5093666;28;20442;-67
2022/12/09 00:31:15;;;;;;;23.90;19.20;;;-0.70;99.10;;;-1.19;86.91;97011.22;5084326;28;20565;-67
2022/12/09 00:33:43;;;;;;;30.17;19.37;;;-0.80;97.70;;;-1.36;87.57;97004.25;5084026;28;20444;-68
2022/12/09 00:36:13;;;;;;;31.63;21.67;;;-0.90;97.10;;;-1.54;88.39;97002.59;5087856;28;20961;-71
2022/12/09 00:38:42;;;;;;;26.30;19.60;;;-1.10;97.10;;;-1.62;88.67;97015.81;5089328;28;20493;-69
2022/12/09 00:41:10;;;;;;;34.03;22.30;;;-1.20;98.20;;;-1.43;88.14;97004.91;5094895;28;20999;-69
2022/12/09 00:43:38;;;;;;;32.60;20.00;;;-1.20;99.90;;;-1.29;87.03;97005.22;5094384;28;20456;-70
2022/12/09 00:46:05;;;;;;;27.40;20.37;;;-1.00;99.90;;;-1.26;86.82;97004.94;5077948;28;20461;-69
2022/12/09 00:48:36;;;;;;;34.30;20.67;;;-0.90;99.90;;;-1.27;87.28;96999.78;5082343;28;20452;-68
2022/12/09 00:51:04;;;;;;;27.77;19.47;;;-0.80;99.60;;;-1.32;86.97;97006.41;5093565;28;20479;-69
2022/12/09 00:53:31;;;;;;;33.23;21.40;;;-0.90;97.40;;;-1.53;87.70;96998.94;5083765;28;20452;-69
2022/12/09 00:55:59;;;;;;;34.30;21.60;;;-1.00;96.80;;;-1.62;89.02;96999.91;5086200;28;20467;-69
2022/12/09 00:58:27;;;;;;;29.63;21.23;;;-1.20;97.60;;;-1.66;88.15;96994.13;5089708;28;20452;-69
2022/12/09 01:00:54;;;;;;;32.87;20.00;;;-1.20;99.90;;;-1.52;87.61;96989.16;5082810;28;20907;-69
2022/12/09 01:03:21;;;;;;;29.00;19.70;;;-1.20;99.90;;;-1.45;86.88;97006.06;5072417;28;20453;-68
2022/12/09 01:05:50;;;;;;;32.70;20.10;;;-1.10;99.90;;;-1.49;86.71;97005.56;5079780;28;20462;-68
2022/12/09 01:08:18;;;;;;;31.03;19.17;;;-1.20;99.70;;;-1.58;86.94;96999.41;5088320;28;20449;-68
2022/12/09 01:10:46;;;;;;;29.80;19.20;;;-1.10;98.60;;;-1.74;86.78;96984.34;5089587;28;20475;-69
2022/12/09 01:13:14;;;;;;;26.40;19.10;;;-1.20;98.50;;;-1.59;87.35;97011.00;5086720;28;20940;-68
2022/12/09 01:15:42;;;;;;;28.50;18.93;;;-1.20;99.40;;;-1.55;87.59;97010.69;5069170;28;20450;-68
2022/12/09 01:18:11;;;;;;;31.20;19.20;;;-1.10;99.90;;;-1.54;88.19;97010.53;5076170;28;20464;-68
2022/12/09 01:20:39;;;;;;;27.03;19.77;;;-1.10;99.90;;;-1.64;88.68;97007.19;5078155;28;20460;-69
2022/12/09 01:23:08;;;;;;;31.50;19.70;;;-1.20;97.90;;;-1.81;89.42;97003.69;5081825;28;20463;-68
2022/12/09 01:25:37;;;;;;;26.23;18.67;;;-1.40;98.30;;;-1.86;89.82;97007.63;5082581;28;20445;-68
2022/12/09 01:28:05;;;;;;;30.37;19.73;;;-1.40;99.90;;;-1.84;88.96;96996.88;5078429;28;20464;-68
2022/12/09 01:30:32;;;;;;;28.30;19.70;;;-1.40;99.90;;;-1.69;88.20;96998.91;5073881;28;20477;-68
2022/12/09 01:32:59;;;;;;;33.50;20.03;;;-1.40;99.90;;;-1.66;88.46;97003.88;5078578;28;20443;-68
2022/12/09 01:35:28;;;;;;;30.97;19.87;;;-1.30;99.90;;;-1.76;88.83;97004.03;5081046;28;20464;-68
2022/12/09 01:37:55;;;;;;;26.77;18.33;;;-1.40;99.90;;;-1.72;88.36;97006.19;5096707;28;20446;-70
2022/12/09 01:40:24;;;;;;;29.97;18.47;;;-1.30;99.90;;;-1.68;88.36;97000.56;5085269;28;20462;-69
2022/12/09 01:42:51;;;;;;;32.10;19.73;;;-1.30;99.90;;;-2.29;88.96;96909.75;5084303;28;20902;-68
2022/12/09 01:45:43;;;;;;;29.00;19.57;;;-1.30;99.90;;;-1.82;89.04;96988.78;5084425;28;20513;-68
2022/12/09 01:48:13;;;;;;;31.93;20.50;;;-1.30;99.90;;;-1.75;89.39;96990.59;5081710;28;20458;-69
2022/12/09 01:50:45;;;;;;;29.80;18.50;;;-1.30;99.90;;;-1.78;89.50;96980.34;5083306;28;20588;-70
2022/12/09 01:53:14;;;;;;;33.73;19.27;;;-1.20;99.90;;;-1.74;89.09;96975.56;5085914;28;20465;-70
2022/12/09 01:55:43;;;;;;;31.33;21.07;;;-1.20;99.90;;;-1.66;89.39;96970.28;5084722;28;21012;-69
2022/12/09 01:58:11;;;;;;;28.40;20.73;;;-1.10;99.90;;;-1.58;89.64;96966.81;5098572;28;20472;-69
2022/12/09 02:00:38;;;;;;;26.57;19.27;;;-1.00;99.90;;;-1.54;88.94;96964.66;5082362;28;20452;-71
2022/12/09 02:03:06;;;;;;;25.90;18.50;;;-1.10;99.90;;;-1.68;89.26;96952.88;5080007;28;20462;-70
2022/12/09 02:05:34;;;;;;;24.10;17.50;;;-1.20;99.90;;;-1.56;88.66;96956.88;5085672;28;20492;-68
2022/12/09 02:08:02;;;;;;;30.10;20.23;;;-1.20;99.90;;;-1.51;88.38;96954.56;5083621;28;20456;-68
2022/12/09 02:10:29;;;;;;;26.90;19.30;;;-1.10;99.90;;;-1.57;88.75;96941.97;5104387;28;20471;-67
2022/12/09 02:13:10;;;;;;;26.57;19.40;;;-1.10;99.90;;;-1.58;88.93;96949.09;5107300;28;21015;-68
2022/12/09 02:15:43;;;;;;;27.80;19.60;;;-1.00;99.90;;;-1.63;88.39;96938.16;5105793;28;20542;-68
2022/12/09 02:18:18;;;;;;;24.97;18.17;;;-1.10;99.90;;;-1.68;88.53;96939.66;5084532;28;20519;-68
2022/12/09 02:20:52;;;;;;;32.57;19.60;;;-1.30;99.90;;;-1.79;88.44;96931.00;5087686;28;20456;-70
2022/12/09 02:23:28;;;;;;;24.33;17.30;;;-1.40;99.90;;;-1.79;89.05;96936.31;5087055;28;20548;-70
2022/12/09 02:26:05;;;;;;;29.17;20.13;;;-1.40;99.90;;;-1.81;89.22;96940.13;5090586;28;20478;-68
2022/12/09 02:29:19;;;;;;;25.43;18.97;;;-1.40;99.90;;;-1.80;88.71;96933.84;5083002;28;20464;-68
2022/12/09 02:32:18;;;;;;;25.13;18.27;;;-1.40;99.90;;;-1.79;88.57;96946.09;5085004;28;20464;-68
2022/12/09 02:34:55;;;;;;;25.20;18.40;;;-1.40;99.90;;;-1.96;88.69;96945.22;5090424;28;20506;-67
2022/12/09 02:37:29;;;;;;;26.97;18.00;;;-1.50;99.90;;;-2.03;90.23;96945.88;5096076;28;20442;-69
2022/12/09 02:40:00;;;;;;;28.37;18.87;;;-1.40;99.90;;;-2.05;90.34;96931.16;5087502;28;20464;-69
2022/12/09 02:42:32;;;;;;;26.70;18.80;;;-1.40;99.90;;;-1.94;90.10;96945.88;5079636;28;20452;-70
2022/12/09 02:45:05;;;;;;;28.70;19.00;;;-1.40;99.90;;;-2.07;91.03;96933.94;5074280;28;20445;-67
2022/12/09 02:47:36;;;;;;;28.53;18.43;;;-1.40;99.90;;;-2.09;91.17;96935.94;5083604;28;20465;-67
2022/12/09 02:50:12;;;;;;;27.50;18.10;;;-1.40;99.90;;;-2.03;90.90;96940.59;5093360;28;20460;-69
2022/12/09 02:52:41;;;;;;;26.80;18.20;;;-1.40;99.90;;;-2.09;90.66;96930.63;5090110;28;20473;-68
2022/12/09 02:55:13;;;;;;;26.20;18.63;;;-1.50;99.90;;;-2.05;90.30;96931.97;5076986;28;20450;-69
2022/12/09 02:57:41;;;;;;;25.37;18.73;;;-1.50;99.90;;;-2.15;89.19;96923.34;5091434;28;20463;-68
2022/12/09 03:00:12;;;;;;;29.40;19.50;;;-1.50;99.90;;;-2.05;89.75;96923.19;5088267;28;20450;-70
2022/12/09 03:02:43;;;;;;;30.80;19.23;;;-1.50;99.90;;;-2.15;90.01;96918.06;5086355;28;20960;-68
2022/12/09 03:05:21;;;;;;;30.43;19.10;;;-1.50;99.90;;;-2.04;89.41;96928.34;5077573;28;20456;-68
2022/12/09 03:08:01;;;;;;;28.03;20.37;;;-1.50;99.90;;;-2.14;90.18;96906.47;5080169;28;20472;-68
2022/12/09 03:10:35;;;;;;;32.10;20.13;;;-1.50;99.90;;;-2.07;90.93;96928.66;5084144;28;20457;-68
2022/12/09 03:13:08;;;;;;;29.50;19.50;;;-1.50;99.90;;;-2.08;90.32;96921.69;5085980;28;20460;-68
2022/12/09 03:15:37;;;;;;;31.67;20.73;;;-1.60;99.90;;;-2.08;89.74;96921.69;5075232;28;20932;-67
2022/12/09 03:18:10;;;;;;;28.67;19.80;;;-1.70;99.90;;;-2.31;90.05;96882.63;5086416;28;20451;-69
2022/12/09 03:20:41;;;;;;;33.40;21.03;;;-1.70;99.90;;;-2.11;89.87;96924.69;5078644;28;20799;-68
2022/12/09 03:23:11;;;;;;;30.80;20.83;;;-1.70;99.90;;;-1.96;91.30;96913.44;5086561;28;20460;-68
2022/12/09 03:25:43;;;;;;;31.57;21.80;;;-1.60;99.90;;;-1.90;91.20;96900.38;5086338;28;20935;-68
2022/12/09 03:28:17;;;;;;;28.93;19.30;;;-1.50;99.90;;;-1.53;91.10;96914.16;5081807;28;20526;-66
2022/12/09 03:30:46;;;;;;;27.17;18.87;;;-1.30;99.90;;;-1.37;90.38;96908.00;5082249;28;20502;-68
2022/12/09 03:33:16;;;;;;;32.63;20.53;;;-1.00;99.90;;;-1.43;90.76;96898.91;5099949;28;20462;-68
2022/12/09 03:35:49;;;;;;;29.83;20.80;;;-0.90;99.90;;;-1.23;89.99;96893.25;5092512;28;20445;-69
2022/12/09 03:38:20;;;;;;;32.63;20.00;;;-0.80;99.90;;;-1.25;90.36;96879.34;5087409;28;20448;-68
2022/12/09 03:41:08;;;;;;;31.30;19.37;;;-0.70;99.90;;;-1.09;90.68;96896.22;5090551;28;20518;-69
2022/12/09 03:43:41;;;;;;;31.50;19.33;;;-0.70;99.90;;;-0.98;90.65;96885.28;5086530;28;20465;-68
2022/12/09 03:46:08;;;;;;;27.80;19.27;;;-0.60;99.90;;;-1.01;89.66;96891.72;5128886;27;20476;-70
2022/12/09 03:48:36;;;;;;;29.47;19.63;;;-0.60;99.90;;;-0.93;89.30;96885.56;5101907;28;20511;-68
2022/12/09 03:51:10;;;;;;;26.60;19.30;;;-0.50;99.90;;;-0.87;88.84;96890.19;5114919;28;20468;-68
2022/12/09 03:53:43;;;;;;;27.40;19.33;;;-0.50;99.90;;;-0.94;89.09;96881.28;5109378;28;20561;-69
2022/12/09 03:56:19;;;;;;;26.20;20.27;;;-0.40;99.90;;;-0.87;88.92;96887.53;5096515;28;20450;-70
2022/12/09 03:58:49;;;;;;;31.20;18.57;;;-0.30;99.90;;;-0.95;89.17;96882.28;5088415;28;20459;-72
2022/12/09 04:01:17;;;;;;;27.57;18.87;;;-0.30;99.90;;;-0.82;89.05;96899.47;5092582;28;20447;-67
2022/12/09 04:03:48;;;;;;;33.53;19.80;;;-0.30;99.90;;;-0.93;89.47;96890.88;5103604;28;20557;-68
2022/12/09 04:06:16;;;;;;;25.83;18.20;;;-0.30;99.40;;;-0.79;88.82;96883.22;5102350;28;20451;-71
2022/12/09 04:08:43;;;;;;;25.43;17.43;;;-0.30;99.90;;;-0.88;88.79;96882.41;5097475;28;20465;-69
2022/12/09 04:11:11;;;;;;;29.93;17.97;;;-0.30;98.50;;;-0.88;88.17;96887.72;5088883;28;20477;-68
2022/12/09 04:13:38;;;;;;;27.10;18.03;;;-0.20;97.00;;;-0.78;88.33;96884.88;5085946;28;20454;-68
2022/12/09 04:16:06;;;;;;;26.60;18.77;;;-0.20;96.80;;;-0.80;88.54;96882.38;5083594;28;20451;-69
2022/12/09 04:18:33;;;;;;;27.30;17.63;;;-0.20;97.10;;;-0.74;88.31;96870.25;5075571;28;20529;-67
2022/12/09 04:21:01;;;;;;;28.90;18.10;;;-0.20;97.10;;;-0.77;87.66;96879.38;5072726;28;22213;-67
2022/12/09 04:23:30;;;;;;;23.37;16.13;;;-0.30;96.80;;;-0.69;87.55;96872.41;5081696;28;20473;-68
2022/12/09 04:25:57;;;;;;;22.70;17.30;;;-0.30;98.50;;;-0.77;87.16;96878.56;5074648;28;20460;-69
2022/12/09 04:28:24;;;;;;;28.00;17.50;;;-0.30;97.90;;;-0.61;87.27;96878.50;5086826;28;20847;-67
2022/12/09 04:30:52;;;;;;;26.17;18.30;;;-0.20;97.60;;;-0.63;86.87;96877.00;5079307;28;20502;-68
2022/12/09 04:33:19;;;;;;;26.50;16.00;;;-0.20;96.80;;;-0.78;87.03;96876.91;5090227;28;20447;-69
2022/12/09 04:35:46;;;;;;;24.23;16.70;;;-0.20;96.20;;;-0.80;86.68;96873.59;5077432;28;20455;-66
2022/12/09 04:38:13;;;;;;;23.43;16.50;;;-0.20;94.70;;;-0.81;86.54;96879.91;5087155;28;20446;-67
2022/12/09 04:40:42;;;;;;;24.17;17.13;;;-0.30;94.00;;;-0.75;85.81;96865.94;5087632;28;20463;-70
2022/12/09 04:43:09;;;;;;;21.47;16.37;;;-0.20;93.10;;;-0.64;85.77;96870.88;5083853;28;20458;-68
2022/12/09 04:45:36;;;;;;;22.63;16.03;;;-0.20;93.20;;;-0.68;85.50;96866.94;5094939;28;20455;-68
2022/12/09 04:48:04;;;;;;;23.77;17.37;;;-0.10;92.70;;;-0.72;85.55;96847.88;5084855;28;20812;-70
2022/12/09 04:50:31;;;;;;;21.70;16.03;;;-0.10;93.10;;;-0.64;85.14;96865.56;5076402;28;20935;-67
2022/12/09 04:52:58;;;;;;;22.97;16.03;;;-0.10;92.90;;;-0.69;85.61;96862.59;5091716;28;20466;-70
2022/12/09 04:55:26;;;;;;;21.80;15.87;;;-0.10;92.80;;;-0.78;86.29;96861.81;5077175;28;20449;-69
2022/12/09 04:57:54;;;;;;;22.70;15.50;;;-0.10;93.10;;;-0.80;86.71;96857.69;5112887;27;20945;-68
2022/12/09 05:00:22;;;;;;;24.83;15.93;;;-0.20;93.70;;;-0.76;86.74;96862.47;5073629;28;20453;-68
2022/12/09 05:02:49;;;;;;;23.77;15.10;;;-0.20;93.60;;;-0.87;86.66;96861.00;5083384;28;20477;-69
2022/12/09 05:05:16;;;;;;;23.33;15.83;;;-0.30;93.90;;;-0.87;87.35;96866.31;5089921;28;20662;-68
2022/12/09 05:07:46;;;;;;;21.13;15.70;;;-0.30;94.70;;;-0.82;87.53;96854.38;5091378;28;20507;-68
2022/12/09 05:10:13;;;;;;;19.67;14.50;;;-0.30;95.20;;;-0.74;86.66;96849.88;5082095;28;20457;-69
2022/12/09 05:12:40;;;;;;;22.77;15.87;;;-0.20;95.30;;;-0.78;85.98;96845.88;5070178;28;20474;-68
2022/12/09 05:15:12;;;;;;;19.47;15.63;;;-0.20;94.20;;;-0.81;86.44;96840.13;5091701;28;20468;-67
2022/12/09 05:17:39;;;;;;;22.17;14.83;;;-0.20;94.00;;;-0.62;85.87;96852.97;5089731;28;20520;-68
2022/12/09 05:20:08;;;;;;;21.43;16.03;;;-0.20;93.70;;;-0.70;86.34;96850.34;5103447;28;20452;-68
2022/12/09 05:22:35;;;;;;;21.97;16.20;;;-0.20;93.80;;;-0.72;86.30;96839.06;5076871;28;20445;-67
2022/12/09 05:25:02;;;;;;;22.03;14.40;;;-0.20;93.90;;;-0.74;86.01;96833.13;5082434;28;20480;-70
2022/12/09 05:27:30;;;;;;;23.27;15.27;;;-0.20;93.70;;;-1.04;85.74;96779.88;5078387;28;20465;-68
2022/12/09 05:29:57;;;;;;;18.87;13.43;;;-0.20;93.50;;;-0.65;85.66;96834.75;5086833;28;20504;-63
2022/12/09 05:32:27;;;;;;;23.43;15.30;;;-0.20;93.50;;;-0.58;85.84;96833.03;5077647;28;20502;-70
2022/12/09 05:34:55;;;;;;;22.20;14.10;;;-0.20;93.40;;;-0.67;86.19;96823.47;5115129;27;20549;-69
2022/12/09 05:37:22;;;;;;;20.87;15.57;;;-0.20;93.50;;;-0.62;85.49;96829.09;5079464;28;20454;-68
2022/12/09 05:39:50;;;;;;;18.10;14.30;;;-0.10;93.50;;;-0.49;85.77;96819.75;5072323;28;20450;-69
2022/12/09 05:42:17;;;;;;;22.13;15.20;;;-0.10;93.40;;;-0.66;85.76;96808.38;5081614;28;20474;-69
2022/12/09 05:44:44;;;;;;;23.50;15.80;;;-0.10;94.00;;;-0.63;86.17;96816.81;5082768;28;20460;-69
2022/12/09 05:47:11;;;;;;;23.30;14.77;;;-0.10;93.80;;;-0.57;86.02;96805.50;5079598;28;20466;-69
2022/12/09 05:49:40;;;;;;;21.30;15.07;;;-0.10;94.20;;;-0.48;85.50;96814.22;5084199;28;20453;-69
2022/12/09 05:52:08;;;;;;;20.80;14.27;;;0.00;93.60;;;-0.47;85.46;96801.81;5095786;28;20460;-68
2022/12/09 05:54:36;;;;;;;20.53;15.23;;;0.00;93.40;;;-0.46;85.77;96803.47;5081382;28;20458;-68
2022/12/09 05:57:03;;;;;;;22.10;15.47;;;0.00;93.40;;;-0.53;86.21;96797.19;5087813;28;20459;-66
2022/12/09 05:59:31;;;;;;;24.03;15.23;;;0.00;93.60;;;-0.67;86.44;96786.34;5085869;28;20450;-65
2022/12/09 06:01:58;;;;;;;18.67;14.40;;;-0.10;93.50;;;-0.53;86.02;96781.25;5087252;28;20454;-67
2022/12/09 06:04:25;;;;;;;21.70;14.77;;;-0.10;93.90;;;-0.66;86.40;96788.00;5078247;28;21027;-68
2022/12/09 06:06:54;;;;;;;22.97;16.00;;;-0.10;93.90;;;-0.63;86.55;96786.78;5079673;28;20467;-66
2022/12/09 06:09:21;;;;;;;26.47;16.70;;;-0.20;93.90;;;-0.74;86.81;96790.66;5072815;28;20485;-65
2022/12/09 06:11:48;;;;;;;28.83;17.20;;;-0.20;94.30;;;-0.78;86.48;96790.19;5076379;28;20489;-67
2022/12/09 06:14:15;;;;;;;22.97;15.87;;;-0.20;93.80;;;-0.66;86.98;96788.00;5086106;28;20456;-73
2022/12/09 06:16:43;;;;;;;23.63;16.07;;;-0.20;94.80;;;-0.59;86.21;96793.44;5079435;28;20449;-71
2022/12/09 06:19:12;;;;;;;22.40;17.07;;;-0.10;94.80;;;-0.42;86.23;96788.81;5072572;28;20461;-70
2022/12/09 06:21:40;;;;;;;25.60;16.00;;;-0.10;94.70;;;-0.57;86.24;96794.06;5076471;28;20454;-69
2022/12/09 06:24:09;;;;;;;23.80;16.13;;;0.00;94.00;;;-0.60;87.25;96792.59;5072216;28;20527;-68
2022/12/09 06:26:36;;;;;;;25.63;16.03;;;0.00;93.80;;;-0.48;86.65;96786.88;5073184;28;20450;-69
2022/12/09 06:29:05;;;;;;;24.63;17.20;;;0.00;93.80;;;-1.07;87.01;96717.41;5082346;28;22084;-69
2022/12/09 06:31:32;;;;;;;21.73;15.70;;;0.00;93.70;;;-0.67;86.77;96766.94;5070888;28;20571;-69
2022/12/09 06:34:00;;;;;;;23.43;16.40;;;0.00;93.90;;;-0.52;87.27;96782.94;5076743;28;20577;-70
2022/12/09 06:36:30;;;;;;;30.40;16.03;;;0.00;94.20;;;-0.52;86.69;96786.41;5074718;28;20824;-68
2022/12/09 06:38:58;;;;;;;24.57;16.10;;;0.10;93.90;;;-0.51;87.13;96777.44;5067756;28;20833;-71
2022/12/09 06:41:27;;;;;;;22.20;15.57;;;0.10;94.60;;;-0.38;86.32;96770.72;5101164;27;20501;-70
2022/12/09 06:43:57;;;;;;;25.10;17.17;;;0.20;94.00;;;-0.35;86.28;96773.88;5072831;28;20460;-72
2022/12/09 06:46:25;;;;;;;30.13;16.93;;;0.20;93.50;;;-0.41;85.90;96763.94;5083647;28;20515;-71
2022/12/09 06:48:53;;;;;;;24.43;17.40;;;0.20;93.50;;;-0.27;86.09;96770.31;5092174;28;20471;-71
2022/12/09 06:51:23;;;;;;;30.70;18.10;;;0.20;93.70;;;-0.45;86.26;96773.25;5091248;28;20454;-71
2022/12/09 06:53:50;;;;;;;30.00;18.27;;;0.20;93.40;;;-0.46;86.77;96788.34;5075536;28;20494;-73
2022/12/09 06:56:18;;;;;;;26.73;16.90;;;0.10;93.90;;;-0.29;86.96;96789.06;5074045;28;20458;-71
2022/12/09 06:58:47;;;;;;;28.33;19.40;;;0.20;94.50;;;-0.29;86.22;96772.34;5113857;27;20484;-70
2022/12/09 07:01:19;;;;;;;27.50;18.33;;;0.30;93.70;;;-0.35;86.12;96751.78;5079656;28;20952;-71
2022/12/09 07:03:48;;;;;;;27.77;17.70;;;0.30;93.50;;;-0.33;86.50;96769.19;5086716;28;20454;-71
2022/12/09 07:06:25;;;;;;;30.13;19.90;;;0.30;93.20;;;-0.33;86.59;96784.28;5075246;28;20449;-71
2022/12/09 07:08:52;;;;;;;32.40;21.87;;;0.30;93.30;;;-0.52;87.04;96782.94;5091150;27;20520;-70
2022/12/09 07:11:19;;;;;;;33.00;19.00;;;0.20;93.10;;;-0.50;87.43;96780.94;5070523;28;20517;-72
2022/12/09 07:13:49;;;;;;;29.60;19.20;;;0.20;93.90;;;-0.31;86.83;96780.47;5095603;28;20477;-71
2022/12/09 07:16:17;;;;;;;31.07;19.50;;;0.30;94.20;;;-0.32;86.70;96785.94;5079436;28;20458;-71
2022/12/09 07:18:44;;;;;;;29.43;19.97;;;0.30;93.90;;;-0.32;86.99;96778.81;5092952;28;20457;-71
2022/12/09 07:21:14;;;;;;;37.77;21.70;;;0.30;93.80;;;-0.27;86.32;96765.03;5081207;28;20518;-71
2022/12/09 07:23:42;;;;;;;27.50;18.43;;;0.30;93.70;;;0.03;85.93;96785.53;5067708;28;20456;-72
2022/12/09 07:26:09;;;;;;;31.17;20.07;;;0.40;93.80;;;0.04;85.60;96785.34;5084374;28;20469;-72
2022/12/09 07:28:41;;;;;;;36.53;21.60;;;0.50;93.20;;;-0.19;85.81;96788.03;5085331;28;20449;-71
2022/12/09 07:31:18;;;;;;;32.47;20.70;;;0.50;92.50;;;-0.21;86.13;96774.91;5074489;28;20462;-71
2022/12/09 07:33:45;;;;;;;30.17;19.87;;;0.50;92.40;;;-0.10;85.85;96786.94;5077138;28;20487;-67
2022/12/09 07:36:12;;;;;;;33.17;20.83;;;0.50;92.30;;;-0.03;85.00;96766.66;5070851;28;20462;-70
2022/12/09 07:38:40;;;;;;;34.47;21.30;;;0.60;92.40;;;0.03;85.59;96788.19;5071585;28;20782;-68
2022/12/09 07:41:16;;;;;;;37.60;22.83;;;0.60;92.30;;;0.06;86.76;96785.16;5063417;28;20478;-67
2022/12/09 07:43:44;;;;;;;34.00;20.00;;;0.70;93.20;;;0.17;85.36;96784.75;5076009;28;20581;-69
2022/12/09 07:46:16;;;;;;;33.50;21.03;;;0.70;92.50;;;0.11;84.98;96766.88;5077717;28;20454;-64
2022/12/09 07:48:43;;;;;;;35.60;21.30;;;0.80;91.60;;;0.35;84.73;96783.56;5076599;28;20475;-65
2022/12/09 07:51:10;;;;;;;35.17;20.70;;;0.90;91.30;;;0.31;84.74;96790.25;5069424;28;20953;-65
2022/12/09 07:53:38;;;;;;;33.10;22.07;;;0.90;91.30;;;0.34;84.69;96789.91;5075785;28;20584;-65
2022/12/09 07:56:10;;;;;;;35.60;22.20;;;0.90;91.30;;;0.20;84.46;96772.94;5066972;28;20516;-68
2022/12/09 07:58:38;;;;;;;31.93;22.17;;;0.90;90.80;;;0.44;83.87;96782.50;5083279;28;20527;-66
2022/12/09 08:01:07;;;;;;;33.07;21.47;;;1.00;90.80;;;0.52;83.87;96779.75;5076139;28;21023;-67
2022/12/09 08:03:36;;;;;;;32.07;20.27;;;1.00;90.70;;;0.46;84.25;96775.16;5081877;28;20495;-65
2022/12/09 08:06:04;;;;;;;34.77;21.17;;;1.00;90.80;;;0.41;83.76;96773.06;5075814;28;20549;-66
2022/12/09 08:08:32;;;;;;;37.17;22.63;;;1.00;90.40;;;0.48;83.56;96772.34;5073581;28;20451;-65
2022/12/09 08:11:07;;;;;;;34.70;20.87;;;1.10;90.30;;;0.56;83.58;96765.09;5070129;28;20457;-66
2022/12/09 08:13:35;;;;;;;35.33;21.60;;;1.10;90.20;;;0.61;83.02;96774.34;5066454;28;20592;-65
2022/12/09 08:16:04;;;;;;;29.40;20.47;;;1.10;90.20;;;0.62;83.04;96768.03;5076124;28;20464;-67
2022/12/09 08:18:32;;;;;;;34.10;20.87;;;1.20;90.00;;;0.73;83.49;96759.59;5094303;27;20446;-65
2022/12/09 08:21:04;;;;;;;35.63;22.07;;;1.20;90.60;;;0.67;83.09;96755.00;5076181;28;20500;-67
2022/12/09 08:23:31;;;;;;;37.90;22.27;;;1.20;89.40;;;0.82;81.98;96757.69;5078782;28;20450;-64
2022/12/09 08:25:59;;;;;;;35.67;22.20;;;1.30;88.70;;;0.89;82.25;96758.56;5075272;28;20474;-68
2022/12/09 08:28:30;;;;;;;34.07;20.90;;;1.40;88.40;;;0.87;81.99;96755.28;5076719;28;20971;-65
2022/12/09 08:30:58;;;;;;;30.67;20.93;;;1.40;87.90;;;0.90;82.23;96754.91;5074011;28;20467;-63
2022/12/09 08:33:25;;;;;;;37.87;22.57;;;1.40;88.40;;;0.98;81.59;96752.16;5067060;28;20487;-66
2022/12/09 08:35:53;;;;;;;34.37;22.83;;;1.50;88.10;;;0.94;81.60;96737.59;5070190;28;20530;-66
2022/12/09 08:38:21;;;;;;;32.47;21.50;;;1.40;87.30;;;1.07;80.78;96733.44;5074055;28;20460;-66
2022/12/09 08:40:48;;;;;;;38.20;23.73;;;1.50;86.90;;;1.08;80.77;96722.59;5061901;28;20550;-70
2022/12/09 08:43:16;;;;;;;39.10;28.05;;;1.60;85.90;;;1.01;81.25;96731.50;5073185;28;20514;-69
2022/12/09 08:45:43;;;;;;;34.87;23.87;;;1.60;86.00;;;1.09;80.72;96729.56;5072144;28;20195;-66
2022/12/09 08:48:10;;;;;;;34.07;22.50;;;1.60;85.90;;;1.00;80.58;96712.09;5075131;28;20466;-67
2022/12/09 08:50:37;;;;;;;34.70;22.60;;;1.60;85.30;;;1.16;80.49;96723.50;5075623;28;20459;-66
2022/12/09 08:53:04;;;;;;;37.93;22.00;;;1.70;85.30;;;1.10;80.07;96722.44;5071757;28;20575;-66
2022/12/09 08:55:33;;;;;;;38.73;22.93;;;1.70;84.40;;;0.99;80.47;96724.53;5071643;28;20470;-66
2022/12/09 08:58:01;;;;;;;33.77;22.90;;;1.70;84.20;;;1.02;80.33;96720.69;5072890;28;20457;-67
2022/12/09 09:00:28;;;;;;;31.07;20.90;;;1.70;84.30;;;1.31;79.73;96724.31;5074006;28;20467;-66
2022/12/09 09:02:55;;;;;;;37.13;23.00;;;1.80;84.40;;;1.48;79.18;96724.06;5076403;28;20819;-66
2022/12/09 09:05:22;;;;;;;35.33;20.40;;;1.90;84.00;;;1.70;78.16;96728.34;5074667;28;21118;-67
2022/12/09 09:07:49;;;;;;;35.27;22.50;;;2.10;83.30;;;1.78;77.91;96731.94;5067858;28;20510;-67
2022/12/09 09:10:17;;;;;;;36.97;22.23;;;2.20;82.80;;;1.94;77.09;96718.34;5068401;28;20463;-67
2022/12/09 09:12:45;;;;;;;34.37;21.57;;;2.40;82.40;;;1.86;76.79;96710.47;5074063;28;20826;-66
2022/12/09 09:15:12;;;;;;;37.07;22.07;;;2.40;81.40;;;1.74;77.31;96728.81;5071099;28;20457;-66
2022/12/09 09:17:40;;;;;;;34.30;21.23;;;2.40;81.50;;;2.14;76.73;96708.84;5080692;28;20462;-66
2022/12/09 09:20:08;;;;;;;31.37;22.10;;;2.50;82.00;;;2.31;75.72;96712.03;5077855;28;20478;-66
2022/12/09 09:22:36;;;;;;;33.17;21.70;;;2.60;81.40;;;2.49;75.40;96720.34;5076642;28;21056;-66
2022/12/09 09:25:03;;;;;;;29.60;20.30;;;2.80;80.80;;;2.46;74.70;96712.75;5074004;28;20455;-68
2022/12/09 09:27:30;;;;;;;30.80;20.43;;;2.90;80.20;;;2.49;75.08;96720.34;5076052;28;20848;-67
2022/12/09 09:29:59;;;;;;;32.50;22.03;;;2.90;80.10;;;2.69;73.87;96709.00;5072334;28;20940;-66
2022/12/09 09:32:26;;;;;;;28.90;21.03;;;3.00;79.70;;;2.44;73.64;96690.78;5072022;28;20459;-67
2022/12/09 09:34:53;;;;;;;31.80;21.03;;;3.00;79.10;;;2.32;76.40;96709.19;5073052;28;21017;-67
2022/12/09 09:37:21;;;;;;;32.53;20.57;;;2.80;79.90;;;2.37;74.68;96711.28;5070559;28;20455;-67
2022/12/09 09:39:48;;;;;;;31.90;20.67;;;2.90;79.90;;;2.44;74.13;96708.66;5074676;28;20947;-66
2022/12/09 09:42:21;;;;;;;29.40;20.87;;;2.90;79.30;;;2.53;73.99;96699.47;5103279;27;20859;-68
2022/12/09 09:44:51;;;;;;;34.87;21.70;;;2.90;79.30;;;2.46;74.55;96693.28;5075235;28;20542;-67
2022/12/09 09:47:36;;;;;;;31.43;20.83;;;2.90;79.30;;;2.65;74.05;96691.72;5076976;28;20462;-67
2022/12/09 09:50:16;;;;;;;28.07;20.03;;;3.00;79.70;;;2.79;73.99;96693.44;5082176;28;21079;-67
2022/12/09 09:52:44;;;;;;;29.60;19.30;;;3.10;79.60;;;2.59;73.28;96687.19;5070950;28;20596;-67
2022/12/09 09:55:16;;;;;;;28.47;19.53;;;3.00;78.60;;;2.67;73.10;96684.38;5067941;28;20467;-67
2022/12/09 09:57:53;;;;;;;34.40;21.40;;;3.00;79.00;;;2.74;73.21;96685.19;5076594;28;20505;-68
2022/12/09 10:00:24;;;;;;;27.37;18.70;;;3.10;78.90;;;2.67;72.03;96690.50;5071630;28;20442;-68
2022/12/09 10:03:00;;;;;;;31.07;19.57;;;3.10;78.00;;;2.72;72.77;96681.91;5075006;28;20552;-70
2022/12/09 10:05:34;;;;;;;25.23;19.43;;;3.10;78.30;;;2.78;71.91;96669.63;5066542;28;20462;-70
2022/12/09 10:08:28;;;;;;;25.60;17.90;;;3.20;78.00;;;2.70;71.12;96667.97;5078705;28;20469;-70
2022/12/09 10:11:11;;;;;;;24.50;17.30;;;3.20;77.40;;;2.67;70.58;96679.03;5073147;28;20466;-69
2022/12/09 10:13:49;;;;;;;26.77;17.10;;;3.10;76.60;;;2.67;70.23;96676.38;5078808;28;22377;-69
2022/12/09 10:16:22;;;;;;;24.77;17.10;;;3.10;76.40;;;2.26;71.88;96677.97;5075397;28;20550;-71
2022/12/09 10:19:10;;;;;;;24.53;17.77;;;2.90;76.30;;;2.54;71.99;96661.94;5072985;28;20455;-70
2022/12/09 10:21:42;;;;;;;23.53;15.70;;;2.90;77.00;;;2.67;70.42;96668.38;5068471;28;20517;-70